sensor_id;sensor_type;location;lat;lon;timestamp;temperature;humidity
4207;DHT22;2117;47.972;7.830;2022-08-01T03:32:20;18.90;98.50
4207;DHT22;2117;47.972;7.830;2022-08-01T03:34:46;18.90;99.10
4207;DHT22;2117;47.972;7.830;2022-08-01T03:37:40;18.90;99.00
4207;DHT22;2117;47.972;7.830;2022-08-01T03:40:34;18.90;99.30
4207;DHT22;2117;47.972;7.830;2022-08-01T03:43:02;18.80;99.20
4207;DHT22;2117;47.972;7.830;2022-08-01T03:45:35;18.80;99.20
4207;DHT22;2117;47.972;7.830;2022-08-01T03:48:08;18.70;99.50
4207;DHT22;2117;47.972;7.830;2022-08-01T03:50:35;18.80;99.60
4207;DHT22;2117;47.972;7.830;2022-08-01T03:53:03;18.70;99.60
4207;DHT22;2117;47.972;7.830;2022-08-01T03:55:31;18.70;99.80
4207;DHT22;2117;47.972;7.830;2022-08-01T03:57:59;18.70;99.90
4207;DHT22;2117;47.972;7.830;2022-08-01T04:00:26;18.70;99.90
4207;DHT22;2117;47.972;7.830;2022-08-01T04:02:52;18.70;99.90
4207;DHT22;2117;47.972;7.830;2022-08-01T04:05:18;18.70;99.90
4207;DHT22;2117;47.972;7.830;2022-08-01T04:07:48;18.70;99.90
4207;DHT22;2117;47.972;7.830;2022-08-01T04:10:23;18.70;99.90
4207;DHT22;2117;47.972;7.830;2022-08-01T04:12:49;18.70;99.90
4207;DHT22;2117;47.972;7.830;2022-08-01T04:15:15;18.70;99.90
4207;DHT22;2117;47.972;7.830;2022-08-01T04:17:41;18.80;99.90
4207;DHT22;2117;47.972;7.830;2022-08-01T04:20:07;18.80;99.90
4207;DHT22;2117;47.972;7.830;2022-08-01T04:22:33;18.80;99.90
4207;DHT22;2117;47.972;7.830;2022-08-01T04:25:00;18.70;99.90
4207;DHT22;2117;47.972;7.830;2022-08-01T04:27:34;18.80;99.90
4207;DHT22;2117;47.972;7.830;2022-08-01T04:30:01;18.70;99.90
4207;DHT22;2117;47.972;7.830;2022-08-01T04:32:32;18.70;99.90
4207;DHT22;2117;47.972;7.830;2022-08-01T04:35:00;18.70;99.90
4207;DHT22;2117;47.972;7.830;2022-08-01T04:37:28;18.70;99.90
4207;DHT22;2117;47.972;7.830;2022-08-01T04:39:54;18.70;99.90
4207;DHT22;2117;47.972;7.830;2022-08-01T04:42:21;18.80;99.90
4207;DHT22;2117;47.972;7.830;2022-08-01T04:44:47;19.10;99.90
4207;DHT22;2117;47.972;7.830;2022-08-01T04:47:13;19.30;99.90
4207;DHT22;2117;47.972;7.830;2022-08-01T04:49:40;19.50;99.90
4207;DHT22;2117;47.972;7.830;2022-08-01T04:52:06;19.70;99.90
4207;DHT22;2117;47.972;7.830;2022-08-01T04:54:34;19.80;99.90
4207;DHT22;2117;47.972;7.830;2022-08-01T04:57:06;19.90;99.60
4207;DHT22;2117;47.972;7.830;2022-08-01T04:59:34;20.00;99.50
4207;DHT22;2117;47.972;7.830;2022-08-01T05:02:11;20.00;99.50
4207;DHT22;2117;47.972;7.830;2022-08-01T05:04:38;20.10;99.50
4207;DHT22;2117;47.972;7.830;2022-08-01T05:07:05;20.10;99.50
4207;DHT22;2117;47.972;7.830;2022-08-01T05:09:32;20.10;99.40
4207;DHT22;2117;47.972;7.830;2022-08-01T05:11:59;20.10;99.30
4207;DHT22;2117;47.972;7.830;2022-08-01T05:14:26;20.10;99.30
4207;DHT22;2117;47.972;7.830;2022-08-01T05:16:52;20.20;99.50
4207;DHT22;2117;47.972;7.830;2022-08-01T05:19:18;20.20;99.50
4207;DHT22;2117;47.972;7.830;2022-08-01T05:21:43;20.10;99.40
4207;DHT22;2117;47.972;7.830;2022-08-01T05:24:09;20.10;99.50
4207;DHT22;2117;47.972;7.830;2022-08-01T05:26:35;20.10;99.50
4207;DHT22;2117;47.972;7.830;2022-08-01T05:29:01;20.10;99.50
4207;DHT22;2117;47.972;7.830;2022-08-01T05:31:27;20.20;99.50
4207;DHT22;2117;47.972;7.830;2022-08-01T05:33:53;20.30;99.50
4207;DHT22;2117;47.972;7.830;2022-08-01T05:36:18;20.30;99.50
4207;DHT22;2117;47.972;7.830;2022-08-01T05:38:44;20.40;99.40
4207;DHT22;2117;47.972;7.830;2022-08-01T05:41:10;20.50;99.40
4207;DHT22;2117;47.972;7.830;2022-08-01T05:43:36;20.60;99.30
4207;DHT22;2117;47.972;7.830;2022-08-01T05:46:01;20.60;99.20
4207;DHT22;2117;47.972;7.830;2022-08-01T05:48:27;20.60;99.10
4207;DHT22;2117;47.972;7.830;2022-08-01T05:50:53;20.70;98.80
4207;DHT22;2117;47.972;7.830;2022-08-01T05:53:19;20.70;99.10
4207;DHT22;2117;47.972;7.830;2022-08-01T05:55:45;20.80;99.10
4207;DHT22;2117;47.972;7.830;2022-08-01T05:58:10;20.80;99.20
4207;DHT22;2117;47.972;7.830;2022-08-01T06:00:36;20.80;99.00
4207;DHT22;2117;47.972;7.830;2022-08-01T06:03:02;20.80;99.00
4207;DHT22;2117;47.972;7.830;2022-08-01T06:05:27;20.80;98.90
4207;DHT22;2117;47.972;7.830;2022-08-01T06:07:53;21.00;98.80
4207;DHT22;2117;47.972;7.830;2022-08-01T06:10:19;21.00;97.90
4207;DHT22;2117;47.972;7.830;2022-08-01T06:12:45;21.00;98.20
4207;DHT22;2117;47.972;7.830;2022-08-01T06:15:11;21.00;98.50
4207;DHT22;2117;47.972;7.830;2022-08-01T06:17:36;21.00;98.10
4207;DHT22;2117;47.972;7.830;2022-08-01T06:20:03;21.00;98.10
4207;DHT22;2117;47.972;7.830;2022-08-01T06:22:29;20.90;98.20
4207;DHT22;2117;47.972;7.830;2022-08-01T06:24:54;21.00;98.50
4207;DHT22;2117;47.972;7.830;2022-08-01T06:27:20;20.90;98.50
4207;DHT22;2117;47.972;7.830;2022-08-01T06:29:46;20.90;98.50
4207;DHT22;2117;47.972;7.830;2022-08-01T06:32:11;20.90;98.50
4207;DHT22;2117;47.972;7.830;2022-08-01T06:34:37;20.90;98.60
4207;DHT22;2117;47.972;7.830;2022-08-01T06:37:02;20.90;98.70
4207;DHT22;2117;47.972;7.830;2022-08-01T06:39:28;20.90;98.60
4207;DHT22;2117;47.972;7.830;2022-08-01T06:41:54;21.00;98.70
4207;DHT22;2117;47.972;7.830;2022-08-01T06:44:19;21.00;99.00
4207;DHT22;2117;47.972;7.830;2022-08-01T06:46:45;21.10;98.90
4207;DHT22;2117;47.972;7.830;2022-08-01T06:49:10;21.10;98.90
4207;DHT22;2117;47.972;7.830;2022-08-01T06:51:36;21.20;98.70
4207;DHT22;2117;47.972;7.830;2022-08-01T06:54:01;21.30;98.70
4207;DHT22;2117;47.972;7.830;2022-08-01T06:56:27;21.30;98.60
4207;DHT22;2117;47.972;7.830;2022-08-01T06:58:53;21.30;98.20
4207;DHT22;2117;47.972;7.830;2022-08-01T07:01:22;21.40;98.20
4207;DHT22;2117;47.972;7.830;2022-08-01T07:03:47;21.50;97.70
4207;DHT22;2117;47.972;7.830;2022-08-01T07:06:13;21.50;97.60
4207;DHT22;2117;47.972;7.830;2022-08-01T07:08:40;21.50;97.70
4207;DHT22;2117;47.972;7.830;2022-08-01T07:11:06;21.70;97.70
4207;DHT22;2117;47.972;7.830;2022-08-01T07:13:31;21.70;97.60
4207;DHT22;2117;47.972;7.830;2022-08-01T07:15:58;21.80;97.20
4207;DHT22;2117;47.972;7.830;2022-08-01T07:18:23;21.90;97.30
4207;DHT22;2117;47.972;7.830;2022-08-01T07:20:49;21.90;97.10
4207;DHT22;2117;47.972;7.830;2022-08-01T07:23:15;22.10;97.30
4207;DHT22;2117;47.972;7.830;2022-08-01T07:25:41;22.10;97.20
4207;DHT22;2117;47.972;7.830;2022-08-01T07:28:07;22.20;97.00
4207;DHT22;2117;47.972;7.830;2022-08-01T07:30:33;22.20;96.90
4207;DHT22;2117;47.972;7.830;2022-08-01T07:32:59;22.30;96.90
4207;DHT22;2117;47.972;7.830;2022-08-01T07:35:25;22.40;96.70
4207;DHT22;2117;47.972;7.830;2022-08-01T07:37:51;22.50;96.90
4207;DHT22;2117;47.972;7.830;2022-08-01T07:40:18;22.70;95.90
4207;DHT22;2117;47.972;7.830;2022-08-01T07:42:44;22.70;96.20
4207;DHT22;2117;47.972;7.830;2022-08-01T07:45:11;22.70;96.00
4207;DHT22;2117;47.972;7.830;2022-08-01T07:47:37;22.80;96.00
4207;DHT22;2117;47.972;7.830;2022-08-01T07:50:03;22.90;95.90
4207;DHT22;2117;47.972;7.830;2022-08-01T07:52:29;23.00;96.00
4207;DHT22;2117;47.972;7.830;2022-08-01T07:54:58;23.10;95.70
4207;DHT22;2117;47.972;7.830;2022-08-01T07:57:25;23.10;95.50
4207;DHT22;2117;47.972;7.830;2022-08-01T07:59:51;23.20;95.60
4207;DHT22;2117;47.972;7.830;2022-08-01T08:02:16;23.30;95.60
4207;DHT22;2117;47.972;7.830;2022-08-01T08:04:42;23.40;95.40
4207;DHT22;2117;47.972;7.830;2022-08-01T08:07:08;23.50;95.30
4207;DHT22;2117;47.972;7.830;2022-08-01T08:09:33;23.60;95.30
4207;DHT22;2117;47.972;7.830;2022-08-01T08:11:59;23.70;95.30
4207;DHT22;2117;47.972;7.830;2022-08-01T08:14:24;23.70;95.10
4207;DHT22;2117;47.972;7.830;2022-08-01T08:16:51;23.90;94.70
4207;DHT22;2117;47.972;7.830;2022-08-01T08:19:16;24.00;94.70
4207;DHT22;2117;47.972;7.830;2022-08-01T08:21:42;24.00;94.60
4207;DHT22;2117;47.972;7.830;2022-08-01T08:24:09;24.10;94.60
4207;DHT22;2117;47.972;7.830;2022-08-01T08:26:49;24.10;94.30
4207;DHT22;2117;47.972;7.830;2022-08-01T08:29:16;24.20;94.40
4207;DHT22;2117;47.972;7.830;2022-08-01T08:31:41;24.30;94.10
4207;DHT22;2117;47.972;7.830;2022-08-01T08:34:07;24.30;94.00
4207;DHT22;2117;47.972;7.830;2022-08-01T08:36:33;24.40;94.20
4207;DHT22;2117;47.972;7.830;2022-08-01T08:38:59;24.50;93.90
4207;DHT22;2117;47.972;7.830;2022-08-01T08:41:25;24.70;93.60
4207;DHT22;2117;47.972;7.830;2022-08-01T08:43:51;24.70;93.90
4207;DHT22;2117;47.972;7.830;2022-08-01T08:46:19;24.80;93.30
4207;DHT22;2117;47.972;7.830;2022-08-01T08:48:45;24.80;93.40
4207;DHT22;2117;47.972;7.830;2022-08-01T08:51:12;24.80;93.60
4207;DHT22;2117;47.972;7.830;2022-08-01T08:53:40;24.90;93.10
4207;DHT22;2117;47.972;7.830;2022-08-01T08:56:11;25.00;93.10
4207;DHT22;2117;47.972;7.830;2022-08-01T08:58:37;25.20;92.50
4207;DHT22;2117;47.972;7.830;2022-08-01T09:01:07;25.20;92.40
4207;DHT22;2117;47.972;7.830;2022-08-01T09:03:34;25.40;92.40
4207;DHT22;2117;47.972;7.830;2022-08-01T09:06:00;25.50;92.10
4207;DHT22;2117;47.972;7.830;2022-08-01T09:08:25;25.60;91.90
4207;DHT22;2117;47.972;7.830;2022-08-01T09:10:51;25.60;92.00
4207;DHT22;2117;47.972;7.830;2022-08-01T09:13:17;25.60;91.40
4207;DHT22;2117;47.972;7.830;2022-08-01T09:15:46;25.70;91.10
4207;DHT22;2117;47.972;7.830;2022-08-01T09:21:12;25.80;90.90
4207;DHT22;2117;47.972;7.830;2022-08-01T09:23:42;25.90;90.40
4207;DHT22;2117;47.972;7.830;2022-08-01T09:26:11;26.00;90.20
4207;DHT22;2117;47.972;7.830;2022-08-01T09:28:37;26.10;89.60
4207;DHT22;2117;47.972;7.830;2022-08-01T09:31:14;26.20;90.00
4207;DHT22;2117;47.972;7.830;2022-08-01T09:33:59;26.20;90.00
4207;DHT22;2117;47.972;7.830;2022-08-01T09:39:20;26.40;87.50
4207;DHT22;2117;47.972;7.830;2022-08-01T09:41:47;26.50;88.40
4207;DHT22;2117;47.972;7.830;2022-08-01T09:44:13;26.50;87.70
4207;DHT22;2117;47.972;7.830;2022-08-01T09:46:50;26.80;85.30
4207;DHT22;2117;47.972;7.830;2022-08-01T09:49:27;26.80;85.20
4207;DHT22;2117;47.972;7.830;2022-08-01T09:51:53;26.90;85.50
4207;DHT22;2117;47.972;7.830;2022-08-01T09:54:29;27.00;86.50
4207;DHT22;2117;47.972;7.830;2022-08-01T09:57:07;27.10;86.50
4207;DHT22;2117;47.972;7.830;2022-08-01T09:59:37;27.10;87.70
4207;DHT22;2117;47.972;7.830;2022-08-01T10:02:05;27.20;86.40
4207;DHT22;2117;47.972;7.830;2022-08-01T10:04:30;27.20;86.30
4207;DHT22;2117;47.972;7.830;2022-08-01T10:07:04;27.30;86.20
4207;DHT22;2117;47.972;7.830;2022-08-01T10:09:32;27.30;85.70
4207;DHT22;2117;47.972;7.830;2022-08-01T10:11:59;27.40;86.30
4207;DHT22;2117;47.972;7.830;2022-08-01T10:14:26;27.50;86.00
4207;DHT22;2117;47.972;7.830;2022-08-01T10:16:53;27.70;85.70
4207;DHT22;2117;47.972;7.830;2022-08-01T10:19:25;27.70;84.00
4207;DHT22;2117;47.972;7.830;2022-08-01T10:21:52;27.70;83.50
4207;DHT22;2117;47.972;7.830;2022-08-01T10:24:23;27.80;83.70
4207;DHT22;2117;47.972;7.830;2022-08-01T10:26:51;27.80;83.60
4207;DHT22;2117;47.972;7.830;2022-08-01T10:29:18;27.90;82.90
4207;DHT22;2117;47.972;7.830;2022-08-01T10:31:46;28.10;83.60
4207;DHT22;2117;47.972;7.830;2022-08-01T10:34:13;28.30;83.90
4207;DHT22;2117;47.972;7.830;2022-08-01T10:36:42;28.40;83.70
4207;DHT22;2117;47.972;7.830;2022-08-01T10:39:10;28.50;81.00
4207;DHT22;2117;47.972;7.830;2022-08-01T10:41:37;28.60;81.80
4207;DHT22;2117;47.972;7.830;2022-08-01T10:44:03;28.80;81.80
4207;DHT22;2117;47.972;7.830;2022-08-01T10:46:30;29.10;81.40
4207;DHT22;2117;47.972;7.830;2022-08-01T10:49:24;29.40;82.10
4207;DHT22;2117;47.972;7.830;2022-08-01T10:51:51;29.70;80.70
4207;DHT22;2117;47.972;7.830;2022-08-01T10:54:17;29.90;79.60
4207;DHT22;2117;47.972;7.830;2022-08-01T10:56:49;30.20;78.00
4207;DHT22;2117;47.972;7.830;2022-08-01T10:59:26;30.30;75.90
4207;DHT22;2117;47.972;7.830;2022-08-01T11:02:00;30.30;74.30
4207;DHT22;2117;47.972;7.830;2022-08-01T11:04:33;30.40;73.70
4207;DHT22;2117;47.972;7.830;2022-08-01T11:07:16;30.60;73.90
4207;DHT22;2117;47.972;7.830;2022-08-01T11:09:45;30.90;72.00
4207;DHT22;2117;47.972;7.830;2022-08-01T11:12:14;30.70;72.40
4207;DHT22;2117;47.972;7.830;2022-08-01T11:17:41;31.50;72.00
4207;DHT22;2117;47.972;7.830;2022-08-01T11:20:18;31.50;71.10
4207;DHT22;2117;47.972;7.830;2022-08-01T11:31:25;32.30;68.30
4207;DHT22;2117;47.972;7.830;2022-08-01T11:38:37;32.50;68.40
4207;DHT22;2117;47.972;7.830;2022-08-01T11:41:10;32.80;68.70
4207;DHT22;2117;47.972;7.830;2022-08-01T11:44:07;33.20;68.60
4207;DHT22;2117;47.972;7.830;2022-08-01T11:52:29;33.60;66.90
4207;DHT22;2117;47.972;7.830;2022-08-01T11:55:06;33.70;65.50
4207;DHT22;2117;47.972;7.830;2022-08-01T11:57:33;34.20;67.40
4207;DHT22;2117;47.972;7.830;2022-08-01T12:00:11;34.60;66.40
4207;DHT22;2117;47.972;7.830;2022-08-01T12:02:37;34.90;64.10
4207;DHT22;2117;47.972;7.830;2022-08-01T12:05:08;35.10;66.30
4207;DHT22;2117;47.972;7.830;2022-08-01T12:07:36;35.40;65.70
4207;DHT22;2117;47.972;7.830;2022-08-01T12:10:16;35.10;63.60
4207;DHT22;2117;47.972;7.830;2022-08-01T12:15:12;35.20;64.20
4207;DHT22;2117;47.972;7.830;2022-08-01T12:17:44;35.70;65.70
4207;DHT22;2117;47.972;7.830;2022-08-01T12:20:12;35.90;61.60
4207;DHT22;2117;47.972;7.830;2022-08-01T12:22:38;35.80;61.30
4207;DHT22;2117;47.972;7.830;2022-08-01T12:25:15;35.50;62.90
4207;DHT22;2117;47.972;7.830;2022-08-01T12:27:43;35.20;63.20
4207;DHT22;2117;47.972;7.830;2022-08-01T12:30:14;35.10;63.60
4207;DHT22;2117;47.972;7.830;2022-08-01T12:32:41;34.70;62.40
4207;DHT22;2117;47.972;7.830;2022-08-01T12:35:16;34.50;64.10
4207;DHT22;2117;47.972;7.830;2022-08-01T12:37:47;34.60;62.90
4207;DHT22;2117;47.972;7.830;2022-08-01T12:40:25;34.80;63.40
4207;DHT22;2117;47.972;7.830;2022-08-01T12:42:59;34.90;62.90
4207;DHT22;2117;47.972;7.830;2022-08-01T12:45:28;34.90;63.10
4207;DHT22;2117;47.972;7.830;2022-08-01T12:47:55;35.00;63.00
4207;DHT22;2117;47.972;7.830;2022-08-01T12:50:24;35.10;62.70
4207;DHT22;2117;47.972;7.830;2022-08-01T12:52:51;35.40;60.80
4207;DHT22;2117;47.972;7.830;2022-08-01T12:55:20;35.40;60.80
4207;DHT22;2117;47.972;7.830;2022-08-01T12:57:48;34.50;60.70
4207;DHT22;2117;47.972;7.830;2022-08-01T13:00:24;34.40;61.20
4207;DHT22;2117;47.972;7.830;2022-08-01T13:03:03;34.20;62.10
4207;DHT22;2117;47.972;7.830;2022-08-01T13:08:13;34.40;63.50
4207;DHT22;2117;47.972;7.830;2022-08-01T13:10:39;35.40;62.80
4207;DHT22;2117;47.972;7.830;2022-08-01T13:13:07;35.40;64.00
4207;DHT22;2117;47.972;7.830;2022-08-01T13:15:36;35.70;61.90
4207;DHT22;2117;47.972;7.830;2022-08-01T13:18:23;35.90;60.80
4207;DHT22;2117;47.972;7.830;2022-08-01T13:20:49;36.40;60.60
4207;DHT22;2117;47.972;7.830;2022-08-01T13:23:17;36.40;61.20
4207;DHT22;2117;47.972;7.830;2022-08-01T13:25:55;36.40;61.10
4207;DHT22;2117;47.972;7.830;2022-08-01T13:28:25;36.50;61.90
4207;DHT22;2117;47.972;7.830;2022-08-01T13:30:52;36.30;60.50
4207;DHT22;2117;47.972;7.830;2022-08-01T13:33:18;36.30;61.20
4207;DHT22;2117;47.972;7.830;2022-08-01T13:35:44;36.10;60.60
4207;DHT22;2117;47.972;7.830;2022-08-01T13:38:09;36.10;62.20
4207;DHT22;2117;47.972;7.830;2022-08-01T13:40:35;36.40;61.10
4207;DHT22;2117;47.972;7.830;2022-08-01T13:43:01;36.40;61.70
4207;DHT22;2117;47.972;7.830;2022-08-01T13:45:26;36.70;63.10
4207;DHT22;2117;47.972;7.830;2022-08-01T13:47:52;37.00;60.00
4207;DHT22;2117;47.972;7.830;2022-08-01T13:50:17;37.00;58.40
4207;DHT22;2117;47.972;7.830;2022-08-01T13:52:43;36.60;57.70
4207;DHT22;2117;47.972;7.830;2022-08-01T13:55:09;35.90;58.90
4207;DHT22;2117;47.972;7.830;2022-08-01T13:57:34;35.60;59.60
4207;DHT22;2117;47.972;7.830;2022-08-01T14:00:00;35.20;59.60
4207;DHT22;2117;47.972;7.830;2022-08-01T14:02:29;35.40;60.60
4207;DHT22;2117;47.972;7.830;2022-08-01T14:04:54;35.50;62.20
4207;DHT22;2117;47.972;7.830;2022-08-01T14:07:21;35.50;63.50
4207;DHT22;2117;47.972;7.830;2022-08-01T14:09:46;35.40;64.00
4207;DHT22;2117;47.972;7.830;2022-08-01T14:12:12;35.10;64.40
4207;DHT22;2117;47.972;7.830;2022-08-01T14:14:38;35.10;65.50
4207;DHT22;2117;47.972;7.830;2022-08-01T14:17:04;35.20;64.80
4207;DHT22;2117;47.972;7.830;2022-08-01T14:19:30;35.60;63.60
4207;DHT22;2117;47.972;7.830;2022-08-01T14:21:56;36.30;62.30
4207;DHT22;2117;47.972;7.830;2022-08-01T14:24:22;36.50;62.30
4207;DHT22;2117;47.972;7.830;2022-08-01T14:26:48;36.90;62.50
4207;DHT22;2117;47.972;7.830;2022-08-01T14:31:39;36.50;61.40
4207;DHT22;2117;47.972;7.830;2022-08-01T14:34:05;36.20;61.70
4207;DHT22;2117;47.972;7.830;2022-08-01T14:36:31;35.80;64.60
4207;DHT22;2117;47.972;7.830;2022-08-01T14:38:56;35.40;65.50
4207;DHT22;2117;47.972;7.830;2022-08-01T14:41:22;34.70;64.60
4207;DHT22;2117;47.972;7.830;2022-08-01T14:43:47;34.50;66.30
4207;DHT22;2117;47.972;7.830;2022-08-01T14:46:13;34.30;66.10
4207;DHT22;2117;47.972;7.830;2022-08-01T14:48:39;34.00;66.50
4207;DHT22;2117;47.972;7.830;2022-08-01T14:51:04;33.40;67.70
4207;DHT22;2117;47.972;7.830;2022-08-01T14:53:33;33.40;68.50
4207;DHT22;2117;47.972;7.830;2022-08-01T14:56:01;33.00;67.70
4207;DHT22;2117;47.972;7.830;2022-08-01T14:58:27;32.70;68.10
4207;DHT22;2117;47.972;7.830;2022-08-01T15:00:52;32.30;69.40
4207;DHT22;2117;47.972;7.830;2022-08-01T15:03:22;32.40;70.70
4207;DHT22;2117;47.972;7.830;2022-08-01T15:05:48;32.50;71.60
4207;DHT22;2117;47.972;7.830;2022-08-01T15:08:13;32.80;70.00
4207;DHT22;2117;47.972;7.830;2022-08-01T15:10:39;33.20;68.80
4207;DHT22;2117;47.972;7.830;2022-08-01T15:13:05;33.20;69.70
4207;DHT22;2117;47.972;7.830;2022-08-01T15:15:31;33.20;68.60
4207;DHT22;2117;47.972;7.830;2022-08-01T15:17:57;33.10;69.30
4207;DHT22;2117;47.972;7.830;2022-08-01T15:20:23;33.10;67.90
4207;DHT22;2117;47.972;7.830;2022-08-01T15:22:48;32.80;67.50
4207;DHT22;2117;47.972;7.830;2022-08-01T15:25:14;32.80;68.30
4207;DHT22;2117;47.972;7.830;2022-08-01T15:27:40;32.70;68.90
4207;DHT22;2117;47.972;7.830;2022-08-01T15:30:06;32.60;68.50
4207;DHT22;2117;47.972;7.830;2022-08-01T15:32:31;32.60;69.10
4207;DHT22;2117;47.972;7.830;2022-08-01T15:34:57;32.60;69.80
4207;DHT22;2117;47.972;7.830;2022-08-01T15:37:23;32.60;68.90
4207;DHT22;2117;47.972;7.830;2022-08-01T15:39:48;32.90;70.30
4207;DHT22;2117;47.972;7.830;2022-08-01T15:42:15;33.40;68.80
4207;DHT22;2117;47.972;7.830;2022-08-01T15:44:41;33.70;68.60
4207;DHT22;2117;47.972;7.830;2022-08-01T15:47:08;33.80;68.50
4207;DHT22;2117;47.972;7.830;2022-08-01T15:49:34;33.70;69.00
4207;DHT22;2117;47.972;7.830;2022-08-01T15:52:03;33.60;68.90
4207;DHT22;2117;47.972;7.830;2022-08-01T15:54:28;33.60;69.60
4207;DHT22;2117;47.972;7.830;2022-08-01T15:56:54;33.60;70.10
4207;DHT22;2117;47.972;7.830;2022-08-01T15:59:20;33.30;69.40
4207;DHT22;2117;47.972;7.830;2022-08-01T16:01:45;33.50;69.00
4207;DHT22;2117;47.972;7.830;2022-08-01T16:04:14;33.50;70.00
4207;DHT22;2117;47.972;7.830;2022-08-01T16:06:41;33.60;70.20
4207;DHT22;2117;47.972;7.830;2022-08-01T16:09:07;33.50;69.90
4207;DHT22;2117;47.972;7.830;2022-08-01T16:11:33;33.10;70.80
4207;DHT22;2117;47.972;7.830;2022-08-01T16:13:59;33.10;71.50
4207;DHT22;2117;47.972;7.830;2022-08-01T16:16:24;32.90;71.90
4207;DHT22;2117;47.972;7.830;2022-08-01T16:18:50;32.70;72.90
4207;DHT22;2117;47.972;7.830;2022-08-01T16:21:16;32.50;73.10
4207;DHT22;2117;47.972;7.830;2022-08-01T16:23:43;32.20;72.20
4207;DHT22;2117;47.972;7.830;2022-08-01T16:26:09;32.00;73.10
4207;DHT22;2117;47.972;7.830;2022-08-01T16:28:35;31.80;73.10
4207;DHT22;2117;47.972;7.830;2022-08-01T16:31:02;31.70;73.60
4207;DHT22;2117;47.972;7.830;2022-08-01T16:33:28;31.40;73.20
4207;DHT22;2117;47.972;7.830;2022-08-01T16:35:54;31.20;73.60
4207;DHT22;2117;47.972;7.830;2022-08-01T16:38:20;31.00;74.40
4207;DHT22;2117;47.972;7.830;2022-08-01T16:40:50;30.90;75.00
4207;DHT22;2117;47.972;7.830;2022-08-01T16:43:18;30.80;75.20
4207;DHT22;2117;47.972;7.830;2022-08-01T16:45:44;30.70;75.30
4207;DHT22;2117;47.972;7.830;2022-08-01T16:48:11;30.50;76.00
4207;DHT22;2117;47.972;7.830;2022-08-01T16:50:39;30.30;75.70
4207;DHT22;2117;47.972;7.830;2022-08-01T16:53:05;30.00;75.70
4207;DHT22;2117;47.972;7.830;2022-08-01T16:55:30;29.90;77.10
4207;DHT22;2117;47.972;7.830;2022-08-01T16:57:57;29.80;78.00
4207;DHT22;2117;47.972;7.830;2022-08-01T17:00:23;29.70;79.90
4207;DHT22;2117;47.972;7.830;2022-08-01T17:02:51;29.50;79.60
4207;DHT22;2117;47.972;7.830;2022-08-01T17:05:17;29.30;80.80
4207;DHT22;2117;47.972;7.830;2022-08-01T17:07:44;29.20;81.10
4207;DHT22;2117;47.972;7.830;2022-08-01T17:10:10;29.10;81.90
4207;DHT22;2117;47.972;7.830;2022-08-01T17:12:36;28.90;81.70
4207;DHT22;2117;47.972;7.830;2022-08-01T17:15:04;28.80;82.10
4207;DHT22;2117;47.972;7.830;2022-08-01T17:17:30;28.70;81.60
4207;DHT22;2117;47.972;7.830;2022-08-01T17:19:56;28.60;82.60
4207;DHT22;2117;47.972;7.830;2022-08-01T17:22:21;28.40;82.60
4207;DHT22;2117;47.972;7.830;2022-08-01T17:24:47;28.30;83.70
4207;DHT22;2117;47.972;7.830;2022-08-01T17:27:15;28.20;87.40
4207;DHT22;2117;47.972;7.830;2022-08-01T17:29:40;27.90;88.70
4207;DHT22;2117;47.972;7.830;2022-08-01T17:32:06;27.60;90.50
4207;DHT22;2117;47.972;7.830;2022-08-01T17:34:32;27.30;91.70
4207;DHT22;2117;47.972;7.830;2022-08-01T17:36:59;27.10;92.30
4207;DHT22;2117;47.972;7.830;2022-08-01T17:39:25;26.80;93.20
4207;DHT22;2117;47.972;7.830;2022-08-01T17:41:51;26.60;95.40
4207;DHT22;2117;47.972;7.830;2022-08-01T17:44:16;26.30;97.80
4207;DHT22;2117;47.972;7.830;2022-08-01T17:46:42;25.80;98.50
4207;DHT22;2117;47.972;7.830;2022-08-01T17:49:08;25.50;99.90
4207;DHT22;2117;47.972;7.830;2022-08-01T17:51:33;25.00;99.90
4207;DHT22;2117;47.972;7.830;2022-08-01T17:53:59;25.00;99.90
4207;DHT22;2117;47.972;7.830;2022-08-01T17:56:26;24.80;99.90
4207;DHT22;2117;47.972;7.830;2022-08-01T17:58:51;24.60;99.90
4207;DHT22;2117;47.972;7.830;2022-08-01T18:01:17;24.50;99.90
4207;DHT22;2117;47.972;7.830;2022-08-01T18:03:44;24.50;99.90
4207;DHT22;2117;47.972;7.830;2022-08-01T18:06:10;24.30;99.90
4207;DHT22;2117;47.972;7.830;2022-08-01T18:08:41;24.00;99.90
4207;DHT22;2117;47.972;7.830;2022-08-01T18:11:07;23.70;99.90
4207;DHT22;2117;47.972;7.830;2022-08-01T18:13:33;23.20;99.90
4207;DHT22;2117;47.972;7.830;2022-08-01T18:15:59;23.00;99.90
4207;DHT22;2117;47.972;7.830;2022-08-01T18:18:25;22.90;99.90
4207;DHT22;2117;47.972;7.830;2022-08-01T18:20:51;22.80;99.90
4207;DHT22;2117;47.972;7.830;2022-08-01T18:23:17;22.60;99.90
4207;DHT22;2117;47.972;7.830;2022-08-01T18:25:43;22.50;99.90
4207;DHT22;2117;47.972;7.830;2022-08-01T18:28:09;22.50;99.90
4207;DHT22;2117;47.972;7.830;2022-08-01T18:30:35;22.50;99.90
4207;DHT22;2117;47.972;7.830;2022-08-01T18:33:00;22.40;99.90
4207;DHT22;2117;47.972;7.830;2022-08-01T18:35:26;22.40;99.90
4207;DHT22;2117;47.972;7.830;2022-08-01T18:37:52;22.30;99.90
4207;DHT22;2117;47.972;7.830;2022-08-01T18:40:19;22.20;99.90
4207;DHT22;2117;47.972;7.830;2022-08-01T18:42:45;22.00;99.90
4207;DHT22;2117;47.972;7.830;2022-08-01T18:45:10;21.70;99.90
4207;DHT22;2117;47.972;7.830;2022-08-01T18:47:37;21.50;99.90
4207;DHT22;2117;47.972;7.830;2022-08-01T18:50:04;21.50;99.90
4207;DHT22;2117;47.972;7.830;2022-08-01T18:52:29;21.40;99.90
4207;DHT22;2117;47.972;7.830;2022-08-01T18:54:56;21.40;99.90
4207;DHT22;2117;47.972;7.830;2022-08-01T18:57:22;21.30;99.90
4207;DHT22;2117;47.972;7.830;2022-08-01T18:59:47;21.30;99.90
4207;DHT22;2117;47.972;7.830;2022-08-01T19:02:13;21.20;99.90
4207;DHT22;2117;47.972;7.830;2022-08-01T19:04:39;21.20;99.90
4207;DHT22;2117;47.972;7.830;2022-08-01T19:07:05;21.10;99.90
4207;DHT22;2117;47.972;7.830;2022-08-01T19:09:30;21.10;99.90
4207;DHT22;2117;47.972;7.830;2022-08-01T19:11:56;21.10;99.90
4207;DHT22;2117;47.972;7.830;2022-08-01T19:14:21;21.20;99.90
4207;DHT22;2117;47.972;7.830;2022-08-01T19:16:47;21.10;99.90
4207;DHT22;2117;47.972;7.830;2022-08-01T19:19:13;21.10;99.90
4207;DHT22;2117;47.972;7.830;2022-08-01T19:21:39;21.10;99.90
4207;DHT22;2117;47.972;7.830;2022-08-01T19:24:05;21.10;99.90
4207;DHT22;2117;47.972;7.830;2022-08-01T19:26:47;21.00;99.90
4207;DHT22;2117;47.972;7.830;2022-08-01T19:29:22;20.90;99.90
4207;DHT22;2117;47.972;7.830;2022-08-01T19:31:48;20.80;99.90
4207;DHT22;2117;47.972;7.830;2022-08-01T19:34:15;20.80;99.90
4207;DHT22;2117;47.972;7.830;2022-08-01T19:36:44;20.80;99.90
4207;DHT22;2117;47.972;7.830;2022-08-01T19:39:12;21.00;99.90
4207;DHT22;2117;47.972;7.830;2022-08-01T19:41:42;21.10;99.90
4207;DHT22;2117;47.972;7.830;2022-08-01T19:44:12;21.10;99.90
4207;DHT22;2117;47.972;7.830;2022-08-01T19:46:38;21.10;99.90
4207;DHT22;2117;47.972;7.830;2022-08-01T19:49:04;21.10;99.90
4207;DHT22;2117;47.972;7.830;2022-08-01T19:51:31;21.00;99.90
4207;DHT22;2117;47.972;7.830;2022-08-01T19:54:03;20.90;99.90
4207;DHT22;2117;47.972;7.830;2022-08-01T19:56:35;20.80;99.90
4207;DHT22;2117;47.972;7.830;2022-08-01T19:59:04;20.70;99.90
4207;DHT22;2117;47.972;7.830;2022-08-01T20:01:33;20.50;99.90
4207;DHT22;2117;47.972;7.830;2022-08-01T20:04:01;20.50;99.90
4207;DHT22;2117;47.972;7.830;2022-08-01T20:06:30;20.50;99.90
4207;DHT22;2117;47.972;7.830;2022-08-01T20:08:57;20.40;99.90
4207;DHT22;2117;47.972;7.830;2022-08-01T20:11:23;20.40;99.90